Airfield :
LOGIN :

Register | Disclaimer

   EN    FR    IT 

 










Legend :    VFR   Marginal VFR   IFR   Intensive IFR   Very Intensive IFR
Visi :
Ceiling :
>= 8 km
>= 3000ft
5 to 8 km
1000 to 3000 ft
1500m to 5 km
500 to 1000 ft
800 to 1500m
200 to 500 ft
< 800m
< 200 ft
Symbols :   Thunderstorms  Fog  Heavy snow  Heavy precipitations  Wind > 20 kt
SIGMETs :     Misc.  Thunderstorms  Icing  Turbulence  Mountain Waves  Volcanic Ashes






- Airport Elevation : 245 ft
- IATA code : BIQ


LFBZ - Biarritz

CURRENT METAR :
  • 280730Z AUTO 16004KT 9999 FEW030 11/11 Q1021 NOSIG

EXPIRED METARs :
  • 280700Z AUTO 17004KT 9999 VV/// 11/11 Q1021 TEMPO 0600 FG BECMG NSC
  • 280630Z AUTO VRB03KT 3300 0700 R09/P2000 R27/0800U BCFG VV/// 11/11 Q1021 BECMG CAVOK
  • 280600Z AUTO 16005KT 1600 0650 R09/P2000 R27/0800N BCFG VV/// 11/11 Q1021 BECMG 0300 FG
  • 280530Z AUTO 18002KT 0450 0350 R09/0600U R27/0400N FG VV/// 11/11 Q1021 BECMG CAVOK
  • 280500Z AUTO 14004KT 0550 0450 R09/0900U R27/0650U FG VV/// 11/11 Q1021 BECMG 9999 NSW BKN020

TAF AMD TAF LFBZ
Valid from the 28 at 06:00 until the 29 at 06:00 UTC


280621Z 2806/2906 VRB03KT 1500 BR OVC001
TEMPO 2806/2808 0600 FG VV///
BECMG 2808/2810 CAVOK



MET'MAP, your aeronautical weather chart ! - Copyright ORBIFLY December 2007 - Disclaimer

ORBIFLY MET'MAP TEAM :

Programming & Development : Alexandra Zaïnal
Concept & original design : Baudouin d'Aumeries
Assistance for programming : Marc-Olivier Méhu
Technical & hardware support : Manuel Goepfert

Contact : metmap@orbifly.com




SOURCES & CREDITS :

   NOAA